Time;durP1;ratioP1;P1;durP2;ratioP2;P2;SDS_P1;SDS_P2;PMS_P1;PMS_P2;Temp;Humidity;BMP_temperature;BMP_pressure;BME280_temperature;BME280_humidity;BME280_pressure;Samples;Min_cycle;Max_cycle;Signal;HPM_P1;HPM_P2
2022/05/17 00:00:33;;;;;;;7.03;2.20;;;15.40;61.90;;;;;;4860124;29;20045;-90
2022/05/17 00:03:00;;;;;;;13.57;2.85;;;15.40;64.80;;;;;;4844760;29;20148;-91
2022/05/17 00:05:27;;;;;;;7.50;2.20;;;15.40;61.80;;;;;;4859997;29;20048;-90
2022/05/17 00:07:55;;;;;;;9.80;2.40;;;15.40;57.40;;;;;;4845232;29;20061;-90
2022/05/17 00:10:23;;;;;;;9.88;2.05;;;15.40;61.10;;;;;;4861895;29;20065;-91
2022/05/17 00:12:51;;;;;;;13.60;2.70;;;15.30;62.30;;;;;;4860346;29;20133;-90
2022/05/17 00:15:19;;;;;;;6.25;1.45;;;15.40;59.20;;;;;;4845197;29;20049;-88
2022/05/17 00:17:50;;;;;;;13.82;2.40;;;15.40;64.30;;;;;;4861205;29;20042;-91
2022/05/17 00:20:17;;;;;;;5.82;1.75;;;15.30;61.30;;;;;;4859785;29;20416;-90
2022/05/17 00:22:44;;;;;;;12.07;2.80;;;15.30;61.70;;;;;;4859770;29;20065;-91
2022/05/17 00:25:14;;;;;;;7.82;2.08;;;15.30;61.40;;;;;;4859914;29;20132;-89
2022/05/17 00:27:41;;;;;;;13.23;3.00;;;15.30;59.80;;;;;;4844819;29;20053;-90
2022/05/17 00:30:09;;;;;;;13.35;3.00;;;15.30;59.30;;;;;;4860190;29;20052;-90
2022/05/17 00:32:36;;;;;;;8.10;2.42;;;15.30;59.20;;;;;;4844520;29;20145;-90
2022/05/17 00:35:04;;;;;;;8.35;3.47;;;15.30;61.40;;;;;;4859361;29;20132;-89
2022/05/17 00:37:31;;;;;;;6.40;1.65;;;15.20;63.30;;;;;;4859742;29;20073;-90
2022/05/17 00:39:58;;;;;;;7.93;2.00;;;15.20;65.30;;;;;;4859683;29;20056;-90
2022/05/17 00:42:26;;;;;;;16.40;3.20;;;15.20;62.10;;;;;;4859511;29;20464;-90
2022/05/17 00:44:53;;;;;;;9.60;2.22;;;15.20;70.60;;;;;;4860500;29;20046;-89
2022/05/17 00:47:28;;;;;;;10.20;2.17;;;15.10;68.60;;;;;;4861070;29;20045;-91
2022/05/17 00:50:10;;;;;;;4.55;1.63;;;15.10;68.90;;;;;;4844308;29;20126;-91
2022/05/17 00:52:43;;;;;;;9.27;2.25;;;15.10;68.60;;;;;;4860090;29;20464;-89
2022/05/17 00:55:32;;;;;;;9.27;2.05;;;15.10;73.00;;;;;;4861506;29;20056;-90
2022/05/17 00:58:10;;;;;;;8.60;2.60;;;15.10;75.60;;;;;;4861057;29;20065;-91
2022/05/17 01:01:02;;;;;;;9.00;2.30;;;15.00;77.90;;;;;;4861299;29;20055;-92
2022/05/17 01:03:36;;;;;;;12.43;1.90;;;15.00;82.60;;;;;;4848319;29;20065;-89
2022/05/17 01:06:03;;;;;;;;;;;15.00;85.80;;;;;;4862864;29;20050;-90
2022/05/17 01:08:30;;;;;;;9.38;1.73;;;15.00;95.00;;;;;;4859513;29;19924;-91
2022/05/17 01:10:57;;;;;;;9.45;2.17;;;15.00;91.40;;;;;;4859599;29;20053;-90
2022/05/17 01:16:11;;;;;;;7.90;2.10;;;14.90;99.90;;;;;;4860848;29;20061;-91
2022/05/17 01:18:41;;;;;;;7.57;1.73;;;15.00;98.40;;;;;;4860834;29;20132;-91
2022/05/17 01:21:10;;;;;;;10.27;3.08;;;14.90;99.90;;;;;;4860917;29;20082;-91
2022/05/17 01:23:38;;;;;;;13.98;2.80;;;14.90;99.90;;;;;;4844228;29;20148;-90
2022/05/17 01:26:10;;;;;;;9.82;2.40;;;14.90;99.90;;;;;;4859252;29;20049;-91
2022/05/17 01:28:37;;;;;;;8.93;2.28;;;14.90;99.90;;;;;;4859581;29;20388;-90
2022/05/17 01:31:04;;;;;;;14.05;3.92;;;14.90;99.70;;;;;;4843789;29;20407;-90
2022/05/17 01:33:34;;;;;;;9.77;2.25;;;14.90;99.90;;;;;;4860602;29;20059;-89
2022/05/17 01:36:03;;;;;;;11.93;2.50;;;14.90;99.90;;;;;;4847423;29;20495;-90
2022/05/17 01:38:31;;;;;;;12.15;2.70;;;14.90;98.80;;;;;;4847626;29;20076;-91
2022/05/17 01:40:58;;;;;;;8.90;1.90;;;14.90;98.50;;;;;;4862870;29;20110;-91
2022/05/17 01:43:25;;;;;;;13.50;2.58;;;14.90;97.00;;;;;;4847309;29;20088;-91
2022/05/17 01:45:52;;;;;;;7.40;1.73;;;14.90;97.50;;;;;;4862649;29;20169;-91
2022/05/17 01:48:19;;;;;;;9.48;2.90;;;14.90;97.90;;;;;;4862615;29;20144;-91
2022/05/17 01:50:46;;;;;;;7.47;2.28;;;14.90;97.80;;;;;;4847260;29;20140;-90
2022/05/17 01:53:13;;;;;;;4.40;1.50;;;14.90;98.90;;;;;;4863726;29;20049;-91
2022/05/17 01:55:40;;;;;;;7.35;2.38;;;14.80;97.00;;;;;;4862677;29;20050;-90
2022/05/17 01:58:07;;;;;;;9.63;1.75;;;14.80;98.90;;;;;;4849152;29;20504;-91
2022/05/17 02:00:36;;;;;;;8.73;1.90;;;14.80;98.40;;;;;;4852775;29;20095;-90
2022/05/17 02:03:04;;;;;;;9.27;2.20;;;14.80;99.90;;;;;;4869007;29;20058;-90
2022/05/17 02:05:31;;;;;;;5.50;1.45;;;14.70;99.90;;;;;;4873824;29;20049;-90
2022/05/17 02:07:58;;;;;;;5.18;1.02;;;14.70;98.60;;;;;;4866536;29;20050;-91
2022/05/17 02:10:27;;;;;;;6.88;1.75;;;14.70;97.70;;;;;;4863071;29;20145;-90
2022/05/17 02:12:57;;;;;;;8.27;2.60;;;14.70;97.90;;;;;;4862783;29;20050;-90
2022/05/17 02:15:25;;;;;;;10.88;2.78;;;14.70;99.90;;;;;;4862999;29;20552;-91
2022/05/17 02:17:53;;;;;;;11.63;2.35;;;14.70;99.90;;;;;;4863670;29;20084;-90
2022/05/17 02:20:21;;;;;;;18.23;2.40;;;14.70;99.90;;;;;;4861949;29;20053;-90
2022/05/17 02:22:48;;;;;;;13.30;1.90;;;14.60;99.20;;;;;;4861977;29;20049;-91
2022/05/17 02:25:15;;;;;;;7.40;2.05;;;14.70;98.90;;;;;;4861858;29;20041;-90
2022/05/17 02:27:43;;;;;;;8.50;1.70;;;14.70;98.70;;;;;;4862025;29;20053;-91
2022/05/17 02:30:12;;;;;;;11.20;3.05;;;14.60;98.70;;;;;;4861912;29;20148;-91
2022/05/17 02:32:39;;;;;;;8.60;2.28;;;14.60;98.60;;;;;;4846576;29;20050;-90
2022/05/17 02:35:08;;;;;;;9.57;2.35;;;14.60;99.90;;;;;;4846675;29;20061;-91
2022/05/17 02:37:35;;;;;;;5.05;1.50;;;14.60;99.90;;;;;;4861536;29;20092;-91
2022/05/17 02:40:02;;;;;;;4.38;1.85;;;14.60;99.30;;;;;;4846488;29;20049;-90
2022/05/17 02:42:29;;;;;;;11.10;1.98;;;14.50;99.90;;;;;;4862059;29;20046;-90
2022/05/17 02:44:56;;;;;;;8.80;1.83;;;14.50;99.90;;;;;;4861328;29;20457;-91
2022/05/17 02:47:23;;;;;;;10.27;1.95;;;14.50;99.90;;;;;;4861671;29;20045;-89
2022/05/17 02:49:50;;;;;;;9.88;2.30;;;14.50;99.90;;;;;;4861849;29;20136;-90
2022/05/17 02:52:17;;;;;;;13.73;2.30;;;14.50;99.90;;;;;;4861627;29;20049;-91
2022/05/17 02:54:44;;;;;;;11.65;2.10;;;14.50;99.90;;;;;;4861498;29;20042;-91
2022/05/17 02:57:11;;;;;;;5.97;1.50;;;14.50;99.90;;;;;;4846286;29;20100;-89
2022/05/17 02:59:38;;;;;;;4.78;1.95;;;14.50;99.90;;;;;;4861885;29;20054;-91
2022/05/17 03:02:05;;;;;;;5.90;2.38;;;14.50;99.90;;;;;;4861549;29;20054;-90
2022/05/17 03:04:32;;;;;;;8.57;2.08;;;14.50;99.90;;;;;;4861625;29;20105;-89
2022/05/17 03:06:59;;;;;;;9.43;1.83;;;14.50;99.90;;;;;;4861337;29;20050;-91
2022/05/17 03:09:26;;;;;;;13.00;2.75;;;14.50;99.90;;;;;;4861442;29;20051;-90
2022/05/17 03:11:53;;;;;;;14.15;3.17;;;14.50;99.90;;;;;;4862310;29;20461;-90
2022/05/17 03:14:23;;;;;;;4.53;2.45;;;14.50;99.90;;;;;;4845787;29;20064;-90
2022/05/17 03:16:50;;;;;;;5.18;2.53;;;14.40;99.90;;;;;;4860829;29;20500;-92
2022/05/17 03:19:18;;;;;;;8.13;1.92;;;14.50;99.90;;;;;;4845891;29;20057;-90
2022/05/17 03:21:47;;;;;;;9.35;2.03;;;14.40;99.90;;;;;;4861186;29;20054;-91
2022/05/17 03:24:15;;;;;;;2.80;1.70;;;14.40;99.90;;;;;;4861493;29;20488;-91
2022/05/17 03:27:02;;;;;;;6.75;2.20;;;14.40;99.90;;;;;;4861240;29;20453;-90
2022/05/17 03:29:29;;;;;;;6.57;2.05;;;14.40;99.90;;;;;;4846199;29;20124;-90
2022/05/17 03:31:57;;;;;;;5.85;1.60;;;14.40;99.90;;;;;;4860959;29;20073;-89
2022/05/17 03:34:27;;;;;;;7.07;1.23;;;14.40;99.90;;;;;;4861162;29;20050;-91
2022/05/17 03:36:55;;;;;;;7.40;1.70;;;14.40;99.90;;;;;;4846058;29;20073;-92
2022/05/17 03:39:24;;;;;;;4.97;1.75;;;14.40;99.90;;;;;;4846037;29;20049;-92
2022/05/17 03:41:53;;;;;;;12.75;2.13;;;14.40;99.90;;;;;;4859138;29;20063;-91
2022/05/17 03:44:21;;;;;;;7.88;2.22;;;14.40;99.90;;;;;;4860566;29;20069;-91
2022/05/17 03:46:48;;;;;;;8.95;2.35;;;14.40;99.90;;;;;;4845569;29;20041;-90
2022/05/17 03:49:15;;;;;;;3.97;1.77;;;14.40;99.90;;;;;;4845629;29;20053;-91
2022/05/17 03:51:45;;;;;;;7.75;1.42;;;14.40;99.90;;;;;;4861131;29;20081;-91
2022/05/17 03:54:14;;;;;;;11.02;1.98;;;14.30;99.90;;;;;;4861721;29;20045;-90
2022/05/17 03:56:44;;;;;;;3.13;1.23;;;14.30;99.90;;;;;;4861575;29;20056;-90
2022/05/17 03:59:11;;;;;;;6.68;1.60;;;14.40;99.90;;;;;;4845429;29;20105;-90
2022/05/17 04:01:38;;;;;;;9.30;2.17;;;14.30;99.90;;;;;;4845696;29;20050;-91
2022/05/17 04:04:05;;;;;;;10.38;2.13;;;14.30;99.90;;;;;;4860735;29;20168;-91
2022/05/17 04:19:43;;;;;;;8.02;1.58;;;14.30;99.90;;;;;;4789464;30;20066;-94
2022/05/17 04:22:15;;;;;;;3.70;1.50;;;14.30;99.90;;;;;;4787167;30;20059;-88
2022/05/17 04:24:42;;;;;;;6.75;1.52;;;14.30;99.90;;;;;;4832425;29;20054;-90
2022/05/17 04:27:12;;;;;;;7.70;2.22;;;14.30;99.90;;;;;;4860004;29;20049;-90
2022/05/17 04:29:39;;;;;;;8.45;2.35;;;14.30;99.90;;;;;;4860114;29;20055;-90
2022/05/17 04:32:07;;;;;;;8.82;2.10;;;14.30;99.90;;;;;;4860543;29;20087;-90
2022/05/17 04:34:34;;;;;;;8.60;2.80;;;14.30;99.90;;;;;;4844427;29;20053;-90
2022/05/17 04:37:00;;;;;;;6.32;1.65;;;14.30;99.90;;;;;;4861330;29;20077;-91
2022/05/17 04:39:27;;;;;;;12.75;3.15;;;14.30;99.90;;;;;;4861563;29;20054;-90
2022/05/17 04:41:54;;;;;;;10.32;1.83;;;14.30;99.90;;;;;;4860648;29;20050;-91
2022/05/17 04:44:21;;;;;;;8.57;2.25;;;14.30;99.90;;;;;;4832437;29;20587;-90
2022/05/17 04:46:51;;;;;;;12.07;2.35;;;14.20;99.90;;;;;;4869589;29;20052;-91
2022/05/17 04:49:18;;;;;;;7.68;2.13;;;14.20;99.90;;;;;;4857812;29;20057;-90
2022/05/17 04:51:46;;;;;;;10.40;2.40;;;14.20;99.90;;;;;;4869761;29;20072;-91
2022/05/17 04:54:13;;;;;;;9.15;1.70;;;14.30;99.90;;;;;;4864497;29;20046;-91
2022/05/17 04:56:40;;;;;;;8.43;2.65;;;14.20;99.90;;;;;;4861992;29;20472;-90
2022/05/17 04:59:07;;;;;;;7.03;2.20;;;14.20;99.90;;;;;;4860473;29;20045;-91
2022/05/17 05:01:34;;;;;;;9.10;1.95;;;14.30;99.90;;;;;;4845244;29;20072;-91
2022/05/17 05:04:02;;;;;;;8.00;1.95;;;14.20;99.90;;;;;;4860180;29;20087;-90
2022/05/17 05:06:29;;;;;;;7.75;1.90;;;14.20;99.90;;;;;;4861164;29;20073;-91
2022/05/17 05:08:57;;;;;;;10.18;1.67;;;14.20;99.90;;;;;;4862832;29;20132;-90
2022/05/17 05:11:24;;;;;;;4.72;1.67;;;14.20;99.90;;;;;;4865025;29;20076;-90
2022/05/17 05:13:52;;;;;;;10.85;2.00;;;14.20;99.90;;;;;;4863638;29;20516;-90
2022/05/17 05:16:18;;;;;;;11.07;1.65;;;14.20;99.90;;;;;;4865234;29;20077;-91
2022/05/17 05:18:46;;;;;;;5.88;1.88;;;14.20;99.90;;;;;;4865266;29;20124;-92
2022/05/17 05:21:15;;;;;;;7.13;1.52;;;14.20;99.90;;;;;;4849642;29;20082;-91
2022/05/17 05:23:43;;;;;;;8.73;1.63;;;14.20;99.90;;;;;;4864648;29;20564;-90
2022/05/17 05:26:12;;;;;;;9.75;2.10;;;14.20;99.90;;;;;;4849292;29;20045;-91
2022/05/17 05:28:40;;;;;;;9.65;2.17;;;14.20;99.90;;;;;;4864614;29;20041;-91
2022/05/17 05:31:15;;;;;;;7.63;1.67;;;14.30;99.90;;;;;;4864461;29;20054;-91
2022/05/17 05:33:42;;;;;;;8.52;2.88;;;14.20;99.90;;;;;;4863776;29;20105;-89
2022/05/17 05:36:10;;;;;;;10.80;2.25;;;14.20;99.90;;;;;;4863787;29;20121;-90
2022/05/17 05:38:37;;;;;;;5.38;1.88;;;14.30;99.90;;;;;;4864151;29;20053;-90
2022/05/17 05:41:09;;;;;;;5.32;1.70;;;14.30;99.90;;;;;;4849246;29;20153;-90
2022/05/17 05:43:36;;;;;;;6.63;1.70;;;14.30;99.90;;;;;;4864611;29;20088;-92
2022/05/17 05:46:03;;;;;;;13.48;2.08;;;14.30;99.90;;;;;;4863486;29;20056;-91
2022/05/17 05:48:31;;;;;;;14.68;2.30;;;14.30;99.90;;;;;;4864076;29;20049;-90
2022/05/17 05:51:00;;;;;;;17.73;2.50;;;14.40;99.90;;;;;;4865318;29;20128;-90
2022/05/17 05:53:29;;;;;;;7.63;1.85;;;14.40;99.90;;;;;;4863093;29;20045;-91
2022/05/17 05:56:01;;;;;;;12.68;2.47;;;14.40;99.90;;;;;;4863290;29;20057;-90
2022/05/17 05:58:34;;;;;;;15.35;2.38;;;14.40;99.90;;;;;;4863009;29;20045;-90
2022/05/17 06:01:02;;;;;;;4.95;1.70;;;14.50;99.90;;;;;;4862983;29;20061;-90
2022/05/17 06:03:30;;;;;;;7.13;2.05;;;14.50;99.90;;;;;;4863149;29;20088;-90
2022/05/17 06:05:57;;;;;;;9.10;1.98;;;14.50;99.90;;;;;;4847580;29;20092;-91
2022/05/17 06:08:25;;;;;;;6.35;2.45;;;14.50;99.90;;;;;;4849889;29;20080;-91
2022/05/17 06:10:52;;;;;;;9.70;2.50;;;14.50;99.90;;;;;;4863958;29;20041;-91
2022/05/17 06:13:19;;;;;;;6.82;2.05;;;14.60;99.90;;;;;;4853199;29;20137;-91
2022/05/17 06:15:47;;;;;;;11.98;2.15;;;14.60;99.90;;;;;;4864380;29;20531;-90
2022/05/17 06:18:14;;;;;;;7.60;2.10;;;14.60;99.90;;;;;;4866859;29;20567;-89
2022/05/17 06:20:47;;;;;;;7.05;2.60;;;14.60;99.90;;;;;;4847359;29;20526;-90
2022/05/17 06:23:15;;;;;;;6.45;1.80;;;14.60;99.90;;;;;;4832765;29;20492;-89
2022/05/17 06:25:42;;;;;;;10.73;2.67;;;14.60;99.90;;;;;;4862457;29;20060;-89
2022/05/17 06:28:10;;;;;;;6.85;1.67;;;14.70;99.90;;;;;;4862171;29;20132;-90
2022/05/17 06:30:38;;;;;;;7.70;2.30;;;14.70;99.90;;;;;;4862450;29;20140;-91
2022/05/17 06:33:09;;;;;;;7.32;2.25;;;14.70;99.90;;;;;;4862270;29;20065;-89
2022/05/17 06:35:38;;;;;;;2.78;1.33;;;14.80;99.90;;;;;;4862309;29;20041;-90
2022/05/17 06:38:06;;;;;;;12.60;2.22;;;14.80;99.90;;;;;;4846993;29;20105;-91
2022/05/17 06:40:33;;;;;;;10.80;2.10;;;14.80;99.90;;;;;;4862325;29;20054;-90
2022/05/17 06:43:03;;;;;;;13.60;2.08;;;14.90;99.90;;;;;;4846536;29;20389;-90
2022/05/17 06:45:31;;;;;;;5.68;1.52;;;14.80;99.90;;;;;;4846517;29;20054;-89
2022/05/17 06:47:58;;;;;;;13.15;2.50;;;14.80;99.90;;;;;;4846716;29;20045;-90
2022/05/17 06:50:25;;;;;;;9.10;2.33;;;14.90;99.90;;;;;;4846490;29;20543;-90
2022/05/17 06:52:52;;;;;;;11.82;2.15;;;14.90;99.90;;;;;;4846265;29;20054;-89
2022/05/17 06:55:19;;;;;;;12.57;2.42;;;14.90;99.90;;;;;;4861519;29;20140;-90
2022/05/17 06:57:48;;;;;;;15.98;2.50;;;14.90;99.90;;;;;;4862112;29;20049;-89
2022/05/17 07:00:18;;;;;;;8.55;1.73;;;15.00;99.90;;;;;;4861236;29;20471;-90
2022/05/17 07:02:46;;;;;;;12.45;2.67;;;15.00;99.90;;;;;;4846162;29;20072;-89
2022/05/17 07:05:14;;;;;;;2.80;1.45;;;15.00;99.90;;;;;;4861687;29;20492;-90
2022/05/17 07:07:41;;;;;;;12.52;2.15;;;15.10;99.90;;;;;;4861412;29;20469;-89
2022/05/17 07:13:08;;;;;;;12.25;2.05;;;15.20;99.90;;;;;;4861313;29;20164;-90
2022/05/17 07:15:41;;;;;;;10.95;2.40;;;15.30;99.90;;;;;;4861535;29;20631;-89
2022/05/17 07:18:09;;;;;;;7.93;1.60;;;15.30;99.90;;;;;;4846099;29;20053;-89
2022/05/17 07:20:36;;;;;;;9.63;1.92;;;15.30;99.90;;;;;;4861130;29;20061;-90
2022/05/17 07:23:03;;;;;;;10.10;1.88;;;15.30;99.90;;;;;;4845772;29;20510;-90
2022/05/17 07:25:32;;;;;;;11.88;2.03;;;15.40;99.90;;;;;;4861145;29;20052;-90
2022/05/17 07:28:00;;;;;;;9.93;1.95;;;15.30;99.90;;;;;;4863312;29;20050;-89
2022/05/17 07:30:27;;;;;;;9.27;1.50;;;15.30;99.90;;;;;;4863298;29;20051;-88
2022/05/17 07:32:54;;;;;;;9.25;2.22;;;15.30;99.90;;;;;;4858968;29;20073;-89
2022/05/17 07:35:21;;;;;;;9.18;1.58;;;15.40;99.90;;;;;;4873564;29;20078;-88
2022/05/17 07:37:49;;;;;;;6.63;2.45;;;15.30;99.90;;;;;;4875346;29;20476;-90
2022/05/17 07:40:17;;;;;;;5.70;1.23;;;15.30;99.90;;;;;;4861816;29;20102;-90
2022/05/17 07:42:45;;;;;;;7.43;1.40;;;15.20;99.90;;;;;;4861191;29;20125;-89
2022/05/17 07:45:14;;;;;;;10.30;2.10;;;15.30;99.90;;;;;;4860980;29;20049;-90
2022/05/17 07:47:42;;;;;;;12.05;3.25;;;15.40;99.90;;;;;;4862425;29;20050;-90
2022/05/17 07:50:10;;;;;;;14.07;2.28;;;15.50;99.90;;;;;;4846256;29;20086;-91
2022/05/17 07:52:37;;;;;;;11.43;1.55;;;15.50;99.90;;;;;;4860824;29;20550;-89
2022/05/17 07:55:06;;;;;;;10.20;2.20;;;15.50;99.90;;;;;;4861504;29;20547;-91
2022/05/17 07:57:34;;;;;;;9.88;2.13;;;15.60;99.90;;;;;;4862019;29;20045;-89
2022/05/17 08:00:00;;;;;;;9.40;2.13;;;15.60;99.90;;;;;;4830267;29;20178;-90
2022/05/17 08:02:37;;;;;;;12.80;2.92;;;15.60;99.90;;;;;;4860674;29;20136;-90
2022/05/17 08:05:10;;;;;;;12.65;2.17;;;15.60;99.90;;;;;;4860496;29;20132;-89
2022/05/17 08:07:38;;;;;;;10.43;2.28;;;15.70;99.90;;;;;;4845245;29;20515;-89
2022/05/17 08:10:05;;;;;;;12.15;2.30;;;15.70;99.90;;;;;;4860201;29;20098;-90
2022/05/17 08:12:32;;;;;;;10.35;2.13;;;15.60;99.90;;;;;;4845205;29;20517;-91
2022/05/17 08:15:00;;;;;;;7.07;1.75;;;15.70;99.90;;;;;;4860177;29;20127;-89
2022/05/17 08:17:27;;;;;;;8.93;1.90;;;15.80;99.90;;;;;;4861049;29;20054;-90
2022/05/17 08:19:56;;;;;;;12.57;2.60;;;16.00;99.90;;;;;;4860696;29;20060;-91
2022/05/17 08:22:23;;;;;;;10.82;1.83;;;16.00;99.90;;;;;;4860429;29;20495;-91
2022/05/17 08:27:39;;;;;;;11.43;2.00;;;15.90;99.90;;;;;;4860409;29;20105;-90
2022/05/17 08:30:14;;;;;;;9.02;1.70;;;15.90;99.90;;;;;;4862747;29;20114;-89
2022/05/17 08:36:03;;;;;;;9.20;2.15;;;16.10;99.90;;;;;;4859578;29;20045;-90
2022/05/17 08:38:43;;;;;;;8.57;2.20;;;16.00;99.90;;;;;;4859704;29;20500;-89
2022/05/17 08:41:59;;;;;;;16.83;2.50;;;16.20;99.90;;;;;;4846941;29;20060;-90
2022/05/17 08:45:09;;;;;;;11.75;2.20;;;16.30;99.90;;;;;;4859261;29;20049;-91
2022/05/17 08:47:51;;;;;;;10.60;1.95;;;16.40;99.90;;;;;;4809996;29;20042;-89
2022/05/17 08:50:32;;;;;;;8.88;2.17;;;16.40;99.90;;;;;;4839840;29;20057;-90
2022/05/17 08:52:59;;;;;;;13.13;2.33;;;16.40;99.90;;;;;;4853969;29;20057;-90
2022/05/17 08:55:33;;;;;;;11.32;2.47;;;16.40;98.90;;;;;;4844021;29;20045;-89
2022/05/17 08:58:17;;;;;;;7.43;1.40;;;16.40;99.90;;;;;;4844543;29;20053;-90
2022/05/17 09:00:54;;;;;;;;;;;16.40;99.50;;;;;;4860085;29;20058;-91
2022/05/17 09:03:42;;;;;;;10.55;1.55;;;16.30;95.40;;;;;;4859224;29;20382;-89
2022/05/17 09:06:18;;;;;;;5.07;1.92;;;16.20;94.00;;;;;;4844361;29;20105;-90
2022/05/17 09:08:55;;;;;;;6.97;1.27;;;16.10;95.00;;;;;;4859502;29;20046;-90
2022/05/17 09:11:51;;;;;;;12.48;2.10;;;16.20;93.50;;;;;;4859564;29;20049;-90
2022/05/17 09:14:22;;;;;;;10.18;2.20;;;16.40;99.00;;;;;;4859386;29;20061;-90
2022/05/17 09:17:05;;;;;;;12.50;2.20;;;16.60;98.10;;;;;;4844884;29;20060;-90
2022/05/17 09:19:33;;;;;;;;;;;16.70;91.70;;;;;;4845860;29;20046;-90
2022/05/17 09:22:01;;;;;;;6.10;1.88;;;16.70;92.00;;;;;;4860713;29;19924;-89
2022/05/17 09:24:37;;;;;;;7.68;1.55;;;16.90;95.80;;;;;;4860145;29;20086;-90
2022/05/17 09:27:30;;;;;;;8.40;1.45;;;16.90;83.80;;;;;;4860173;29;20163;-90
2022/05/17 09:30:11;;;;;;;6.80;1.70;;;16.80;78.10;;;;;;4844907;29;20136;-90
2022/05/17 09:32:44;;;;;;;10.43;2.30;;;16.80;85.10;;;;;;4860482;29;20504;-90
2022/05/17 09:35:20;;;;;;;7.57;1.80;;;16.80;79.90;;;;;;4860501;29;20750;-89
2022/05/17 09:37:54;;;;;;;7.85;1.77;;;17.00;73.40;;;;;;4859498;29;20064;-89
2022/05/17 09:40:27;;;;;;;7.32;2.13;;;17.10;64.80;;;;;;4860517;29;20072;-90
2022/05/17 09:42:57;;;;;;;13.38;2.80;;;17.20;73.60;;;;;;4844738;29;20411;-90
2022/05/17 09:45:55;;;;;;;13.90;3.58;;;17.20;74.30;;;;;;4859741;29;20054;-90
2022/05/17 09:54:40;;;;;;;9.60;2.05;;;17.80;60.80;;;;;;4858700;29;20050;-89
2022/05/17 09:57:19;;;;;;;10.13;2.10;;;17.70;33.80;;;;;;4861894;29;20061;-88
2022/05/17 10:12:26;;;;;;;9.32;2.25;;;17.80;29.50;;;;;;4883815;29;20068;-92
2022/05/17 10:35:03;;;;;;;8.93;1.75;;;19.40;1.00;;;;;;3215073;27;20442;-87
2022/05/17 10:37:47;;;;;;;11.00;2.50;;;19.60;1.00;;;;;;4789289;29;20058;-86
2022/05/17 10:40:48;;;;;;;7.95;1.60;;;19.80;1.00;;;;;;4806455;29;20074;-86
2022/05/17 10:43:45;;;;;;;8.07;1.20;;;20.00;1.00;;;;;;4807470;29;20054;-88
2022/05/17 10:46:22;;;;;;;10.07;2.45;;;20.10;1.00;;;;;;4805701;29;20055;-87
2022/05/17 10:49:11;;;;;;;6.65;1.27;;;20.10;1.00;;;;;;4806643;29;20051;-86
2022/05/17 10:51:57;;;;;;;5.97;1.38;;;20.20;1.00;;;;;;4836509;29;20038;-87
2022/05/17 10:54:57;;;;;;;9.20;1.77;;;20.40;1.00;;;;;;4789704;29;20100;-88
2022/05/17 10:57:43;;;;;;;11.40;2.15;;;20.50;1.00;;;;;;4788158;30;20071;-87
2022/05/17 11:00:18;;;;;;;5.43;1.67;;;20.50;1.00;;;;;;4789623;29;20059;-87
2022/05/17 11:06:51;;;;;;;7.32;1.15;;;20.40;1.00;;;;;;4789100;29;20063;-87
2022/05/17 11:09:45;;;;;;;4.03;1.55;;;20.40;1.00;;;;;;4789562;29;20051;-86
2022/05/17 11:16:37;;;;;;;8.30;1.63;;;20.40;1.00;;;;;;4789110;29;20088;-87
2022/05/17 11:20:11;;;;;;;8.07;1.90;;;20.40;1.00;;;;;;4803126;29;20050;-87
2022/05/17 11:22:52;;;;;;;12.13;1.95;;;20.30;1.00;;;;;;4787870;30;20047;-88
2022/05/17 11:25:48;;;;;;;10.00;1.67;;;20.30;1.00;;;;;;4801484;29;20070;-87
2022/05/17 11:29:15;;;;;;;8.52;1.27;;;20.30;1.00;;;;;;4796170;29;20061;-88
2022/05/17 11:32:33;;;;;;;4.72;1.02;;;20.20;1.00;;;;;;4805662;29;20058;-87
2022/05/17 11:35:23;;;;;;;8.57;2.75;;;20.20;1.00;;;;;;4806504;29;20097;-87
2022/05/17 11:42:26;;;;;;;8.45;1.92;;;20.30;1.00;;;;;;4804623;29;20128;-87
2022/05/17 11:45:39;;;;;;;2.88;0.90;;;20.40;1.00;;;;;;4805365;29;20130;-87
2022/05/17 11:48:15;;;;;;;4.18;1.30;;;20.40;1.00;;;;;;4804216;29;20043;-87
2022/05/17 11:52:25;;;;;;;;;;;;;;;;;;;;;
2022/05/17 11:56:04;;;;;;;9.57;1.67;;;20.50;1.00;;;;;;4806199;29;20555;-88
2022/05/17 12:08:22;;;;;;;10.00;2.78;;;20.90;1.00;;;;;;4770954;30;20071;-87
2022/05/17 12:11:15;;;;;;;10.05;1.95;;;21.10;1.00;;;;;;4795939;29;20075;-85
2022/05/17 12:22:49;;;;;;;6.07;1.80;;;21.50;1.00;;;;;;3172541;23;20061;-88
2022/05/17 12:34:32;;;;;;;5.45;2.25;;;22.00;1.00;;;;;;4724468;30;20086;-88
2022/05/17 12:37:35;;;;;;;6.57;1.90;;;22.10;1.00;;;;;;4753859;30;20678;-89
2022/05/17 12:53:37;;;;;;;7.18;2.08;;;22.10;1.00;;;;;;4438629;27;20062;-87
2022/05/17 12:56:44;;;;;;;10.27;2.78;;;22.40;1.00;;;;;;4804529;29;20516;-88
2022/05/17 12:59:32;;;;;;;4.70;2.08;;;22.40;1.00;;;;;;4821201;29;20532;-90
2022/05/17 13:02:02;;;;;;;9.88;2.35;;;22.50;1.00;;;;;;4804737;29;20104;-85
2022/05/17 13:04:37;;;;;;;16.00;3.25;;;22.20;1.00;;;;;;4819560;29;20054;-84
2022/05/17 13:07:13;;;;;;;8.77;2.22;;;22.20;1.00;;;;;;4819449;29;20051;-87
2022/05/17 13:10:04;;;;;;;18.00;3.40;;;22.30;1.00;;;;;;4804642;29;20070;-86
2022/05/17 13:12:36;;;;;;;10.05;2.33;;;22.10;1.00;;;;;;4805791;29;20047;-86
2022/05/17 13:15:06;;;;;;;11.45;3.13;;;22.40;1.00;;;;;;4804203;29;20074;-85
2022/05/17 13:17:37;;;;;;;14.00;3.60;;;22.60;1.00;;;;;;4805670;29;20081;-86
2022/05/17 13:20:13;;;;;;;10.80;2.93;;;22.80;1.00;;;;;;4819380;29;20054;-86
2022/05/17 13:22:43;;;;;;;11.48;2.72;;;22.80;1.00;;;;;;4805735;29;20134;-87
2022/05/17 13:25:18;;;;;;;10.95;2.70;;;23.10;1.00;;;;;;4819544;29;20402;-86
2022/05/17 13:27:51;;;;;;;12.18;2.80;;;23.20;1.00;;;;;;4805545;29;20038;-89
2022/05/17 13:30:46;;;;;;;12.73;3.42;;;22.90;1.00;;;;;;4822512;29;20067;-89
2022/05/17 13:33:40;;;;;;;15.80;3.92;;;23.00;1.00;;;;;;4822883;29;20116;-87
2022/05/17 13:36:12;;;;;;;9.75;3.58;;;23.00;1.00;;;;;;4809110;29;20051;-88
2022/05/17 13:38:39;;;;;;;17.05;3.78;;;22.70;1.00;;;;;;4808847;29;20061;-86
2022/05/17 13:41:27;;;;;;;12.98;3.17;;;22.70;1.00;;;;;;4807312;29;20405;-87
2022/05/17 13:43:57;;;;;;;12.30;2.53;;;22.80;1.00;;;;;;4792251;29;20065;-86
2022/05/17 13:46:37;;;;;;;12.27;4.60;;;23.00;1.00;;;;;;4822472;29;20148;-87
2022/05/17 13:49:36;;;;;;;14.35;3.25;;;22.80;1.00;;;;;;4808610;29;20039;-85
2022/05/17 13:52:24;;;;;;;11.10;4.07;;;23.20;1.00;;;;;;4807717;29;20141;-83
2022/05/17 13:54:55;;;;;;;9.82;3.50;;;23.50;1.00;;;;;;4808404;29;20047;-84
2022/05/17 14:01:59;;;;;;;9.98;2.75;;;23.50;1.00;;;;;;4811708;29;20045;-93
2022/05/17 14:37:30;;;;;;;9.02;2.03;;;23.70;1.00;;;;;;1344266;27;20099;-86
2022/05/17 14:39:57;;;;;;;13.10;2.55;;;23.60;1.00;;;;;;4806477;29;20540;-87
2022/05/17 14:42:24;;;;;;;9.35;2.47;;;23.90;1.00;;;;;;4807875;29;20062;-87
2022/05/17 14:45:12;;;;;;;9.52;2.65;;;23.10;1.00;;;;;;4799513;29;20745;-87
2022/05/17 14:47:40;;;;;;;12.98;3.45;;;23.30;1.00;;;;;;4803334;29;20559;-88
2022/05/17 14:50:10;;;;;;;10.70;2.70;;;22.70;1.00;;;;;;4789208;29;20063;-85
2022/05/17 14:52:40;;;;;;;9.30;2.55;;;22.70;1.00;;;;;;4803181;29;20074;-86
2022/05/17 14:55:12;;;;;;;7.18;1.90;;;22.80;1.00;;;;;;4789807;29;20407;-86
2022/05/17 14:57:39;;;;;;;8.03;1.77;;;23.60;1.00;;;;;;4803325;29;20072;-84
2022/05/17 15:00:26;;;;;;;9.10;2.45;;;24.10;1.00;;;;;;4784847;30;20326;-85
2022/05/17 15:03:06;;;;;;;4.80;2.63;;;23.60;1.00;;;;;;4803234;29;20130;-86
2022/05/17 15:05:35;;;;;;;7.00;1.73;;;23.80;1.00;;;;;;4789785;29;20539;-86
2022/05/17 15:08:04;;;;;;;10.35;2.83;;;23.60;1.00;;;;;;4803232;29;20499;-83
2022/05/17 15:10:33;;;;;;;10.60;1.55;;;24.00;1.00;;;;;;4803401;29;20050;-84
2022/05/17 15:13:00;;;;;;;11.13;1.95;;;23.90;1.00;;;;;;4802732;29;20422;-84
2022/05/17 15:15:27;;;;;;;6.55;2.03;;;23.90;1.00;;;;;;4789748;29;20047;-85
2022/05/17 15:18:04;;;;;;;6.25;2.15;;;23.70;1.00;;;;;;4802856;29;20422;-85
2022/05/17 15:20:32;;;;;;;6.63;1.85;;;24.30;1.00;;;;;;4789605;29;20130;-85
2022/05/17 15:23:01;;;;;;;5.78;1.50;;;24.40;1.00;;;;;;4802948;29;20089;-84
2022/05/17 15:25:30;;;;;;;6.38;1.30;;;24.60;1.00;;;;;;4789184;29;20129;-85
2022/05/17 15:27:57;;;;;;;4.97;1.83;;;24.80;1.00;;;;;;4802900;29;20070;-85
2022/05/17 15:30:27;;;;;;;5.68;2.08;;;24.70;1.00;;;;;;4789517;29;20062;-85
2022/05/17 15:32:55;;;;;;;11.60;2.10;;;24.20;1.00;;;;;;4787708;29;20078;-86
2022/05/17 15:35:26;;;;;;;10.75;2.17;;;24.20;1.00;;;;;;4788861;29;20128;-86
2022/05/17 15:37:54;;;;;;;7.07;1.48;;;23.80;1.00;;;;;;4788789;29;20082;-85
2022/05/17 15:40:23;;;;;;;7.53;1.73;;;23.60;1.00;;;;;;4802985;29;20100;-85
2022/05/17 15:42:51;;;;;;;5.45;1.30;;;23.80;1.00;;;;;;4789128;29;20050;-85
2022/05/17 15:45:20;;;;;;;6.90;1.23;;;24.80;1.00;;;;;;4773095;30;20055;-85
2022/05/17 15:53:31;;;;;;;5.78;1.40;;;24.90;1.00;;;;;;4787990;29;20077;-85
2022/05/17 15:56:02;;;;;;;7.00;1.67;;;25.20;1.00;;;;;;4802588;29;20554;-84
2022/05/17 15:58:33;;;;;;;7.25;1.42;;;24.50;1.00;;;;;;4788894;29;20509;-85